createdAt,value
2019-04-30T00:01:18.708Z,44.63
2019-04-30T00:06:10.171Z,49.45
2019-04-30T00:11:05.358Z,44.23
2019-04-30T00:16:01.632Z,45.33
2019-04-30T00:20:55.405Z,47.78
2019-04-30T00:25:49.032Z,46.92
2019-04-30T00:30:43.933Z,40.33
2019-04-30T00:35:37.904Z,41.88
2019-04-30T00:40:31.376Z,48.68
2019-04-30T00:45:25.213Z,47.03
2019-04-30T00:50:18.832Z,43.78
2019-04-30T00:55:12.448Z,48.17
2019-04-30T01:00:11.431Z,45.83
2019-04-30T01:05:15.659Z,47.03
2019-04-30T01:10:11.983Z,41.87
2019-04-30T01:15:11.135Z,46.02
2019-04-30T01:20:01.827Z,40.67
2019-04-30T01:24:56.571Z,47.53
2019-04-30T01:29:50.244Z,46.08
2019-04-30T01:34:44.170Z,48.50
2019-04-30T01:39:39.209Z,46.33
2019-04-30T01:44:34.972Z,51.68
2019-04-30T01:49:28.961Z,48.07
2019-04-30T01:54:24.351Z,55.05
2019-04-30T01:59:19.837Z,52.27
2019-04-30T02:04:13.776Z,52.47
2019-04-30T02:09:09.124Z,46.45
2019-04-30T02:14:03.049Z,45.25
2019-04-30T02:18:56.603Z,43.68
2019-04-30T02:23:50.092Z,48.15
2019-04-30T02:28:43.637Z,48.60
2019-04-30T02:33:40.479Z,46.92
2019-04-30T02:38:35.761Z,61.05
2019-04-30T02:43:32.157Z,45.55
2019-04-30T02:48:29.464Z,60.03
2019-04-30T02:53:51.948Z,54.93
2019-04-30T02:58:45.601Z,51.48
2019-04-30T03:03:42.597Z,49.10
2019-04-30T03:08:34.664Z,48.50
2019-04-30T03:13:29.918Z,32.00
2019-04-30T03:18:30.180Z,34.05
2019-04-30T03:23:23.261Z,26.68
2019-04-30T03:28:20.175Z,26.57
2019-04-30T03:33:13.698Z,35.43
2019-04-30T03:38:09.457Z,32.93
2019-04-30T03:43:03.042Z,23.57
2019-04-30T03:47:59.600Z,23.20
2019-04-30T03:52:52.138Z,19.65
2019-04-30T03:57:45.720Z,19.10
2019-04-30T04:02:46.515Z,21.35
2019-04-30T04:07:53.140Z,17.10
2019-04-30T04:12:49.819Z,13.18
2019-04-30T04:17:43.062Z,12.80
2019-04-30T04:22:36.657Z,13.22
2019-04-30T04:27:31.116Z,4.95
2019-04-30T04:32:26.008Z,7.17
2019-04-30T04:37:20.370Z,5.47
2019-04-30T04:42:14.226Z,6.67
2019-04-30T04:47:09.943Z,2.25
2019-04-30T04:52:05.319Z,6.33
2019-04-30T04:57:13.253Z,7.22
2019-04-30T05:01:55.300Z,3.10
2019-04-30T05:06:49.836Z,2.90
2019-04-30T05:11:43.603Z,3.67
2019-04-30T05:16:39.388Z,4.17
2019-04-30T05:21:41.967Z,3.17
2019-04-30T05:26:28.765Z,3.60
2019-04-30T05:31:22.351Z,3.12
2019-04-30T05:36:15.901Z,3.30
2019-04-30T05:41:09.465Z,3.20
2019-04-30T05:46:02.974Z,1.55
2019-04-30T05:50:59.112Z,3.72
2019-04-30T05:55:52.716Z,2.33
2019-04-30T06:00:52.194Z,2.87
2019-04-30T06:05:45.762Z,2.20
2019-04-30T06:10:40.877Z,1.95
2019-04-30T06:15:36.142Z,3.15
2019-04-30T06:20:29.886Z,4.40
2019-04-30T06:25:31.148Z,4.17
2019-04-30T06:30:19.808Z,2.93
2019-04-30T06:35:13.721Z,2.55
2019-04-30T06:40:09.382Z,2.72
2019-04-30T06:45:06.140Z,4.33
2019-04-30T06:50:01.350Z,5.10
2019-04-30T06:54:55.144Z,5.15
2019-04-30T06:59:51.185Z,3.35
2019-04-30T07:04:44.244Z,6.65
2019-04-30T07:09:53.158Z,2.97
2019-04-30T07:14:43.896Z,4.83
2019-04-30T07:19:51.031Z,4.03
2019-04-30T07:24:32.593Z,3.62
2019-04-30T07:29:26.144Z,3.70
2019-04-30T07:34:19.793Z,3.90
2019-04-30T07:39:13.280Z,3.30
2019-04-30T07:44:10.825Z,1.67
2019-04-30T07:49:02.488Z,3.30
2019-04-30T07:53:56.313Z,1.22
2019-04-30T07:58:50.476Z,4.00
2019-04-30T08:03:50.064Z,2.75
2019-04-30T08:08:43.978Z,4.15
2019-04-30T08:13:40.692Z,2.70
2019-04-30T08:18:34.481Z,2.35
2019-04-30T08:23:34.806Z,5.20
2019-04-30T08:28:25.164Z,3.57
2019-04-30T08:33:19.334Z,2.30
2019-04-30T08:38:12.968Z,3.37
2019-04-30T08:43:09.438Z,1.57
2019-04-30T08:48:03.099Z,3.15
2019-04-30T08:52:59.759Z,2.40
2019-04-30T08:57:53.681Z,2.67
2019-04-30T09:02:49.169Z,4.58
2019-04-30T09:07:42.916Z,2.70
2019-04-30T09:12:36.452Z,6.08
2019-04-30T09:17:30.205Z,2.80
2019-04-30T09:22:24.036Z,2.90
2019-04-30T09:27:19.595Z,2.22
2019-04-30T09:32:14.454Z,5.10
2019-04-30T09:37:08.715Z,3.25
2019-04-30T09:42:02.301Z,2.62
2019-04-30T09:46:58.797Z,4.78
2019-04-30T09:51:52.706Z,3.93
2019-04-30T09:56:46.295Z,2.93
2019-04-30T10:01:39.971Z,4.45
2019-04-30T10:06:39.577Z,3.60
2019-04-30T10:11:33.759Z,3.02
2019-04-30T10:16:39.591Z,4.60
2019-04-30T10:21:33.694Z,3.80
2019-04-30T10:26:27.304Z,4.27
2019-04-30T10:31:21.064Z,2.87
2019-04-30T10:36:14.649Z,2.15
2019-04-30T10:41:08.909Z,4.47
2019-04-30T10:46:02.565Z,2.75
2019-04-30T10:50:56.141Z,4.33
2019-04-30T10:55:49.632Z,3.05
2019-04-30T11:00:45.364Z,4.22
2019-04-30T11:05:41.055Z,4.75
2019-04-30T11:10:35.965Z,5.25
2019-04-30T11:15:29.902Z,5.40
2019-04-30T11:20:24.678Z,6.22
2019-04-30T11:25:19.815Z,3.13
2019-04-30T11:30:23.402Z,3.62
2019-04-30T11:35:09.905Z,4.10
2019-04-30T11:40:07.900Z,3.77
2019-04-30T11:45:01.588Z,4.92
2019-04-30T11:49:55.458Z,4.72
2019-04-30T11:54:54.113Z,2.93
2019-04-30T11:59:46.952Z,3.45
2019-04-30T12:04:40.541Z,5.25
2019-04-30T12:09:41.714Z,4.83
2019-04-30T12:14:35.232Z,4.17
2019-04-30T12:19:29.280Z,3.75
2019-04-30T12:24:23.984Z,4.53
2019-04-30T12:29:19.113Z,5.25
2019-04-30T12:34:12.684Z,4.08
2019-04-30T12:39:07.188Z,5.57
2019-04-30T12:44:00.676Z,4.33
2019-04-30T12:48:55.793Z,4.85
2019-04-30T12:53:59.724Z,4.72
2019-04-30T12:58:53.317Z,3.80
2019-04-30T13:03:55.964Z,4.17
2019-04-30T13:08:43.786Z,5.60
2019-04-30T13:13:40.038Z,5.05
2019-04-30T13:18:32.947Z,5.58
2019-04-30T13:23:26.536Z,4.97
2019-04-30T13:28:24.736Z,6.22
2019-04-30T13:33:34.968Z,4.53
2019-04-30T13:38:47.613Z,5.03
2019-04-30T13:43:53.985Z,5.27
2019-04-30T13:48:47.519Z,3.98
2019-04-30T13:53:41.342Z,5.45
2019-04-30T13:58:35.121Z,4.97
2019-04-30T14:03:42.404Z,6.23
2019-04-30T14:08:38.847Z,5.47
2019-04-30T14:13:32.797Z,5.53
2019-04-30T14:18:30.830Z,5.45
2019-04-30T14:23:21.871Z,6.80
2019-04-30T14:28:15.368Z,5.12
2019-04-30T14:33:09.474Z,4.40
2019-04-30T14:38:05.204Z,4.12
2019-04-30T14:43:02.981Z,4.47
2019-04-30T14:48:08.662Z,5.05
2019-04-30T14:53:07.578Z,4.70
2019-04-30T14:58:09.665Z,3.60
2019-04-30T15:08:03.488Z,4.03
2019-04-30T15:12:56.960Z,6.17
2019-04-30T15:17:50.445Z,4.37
2019-04-30T15:22:45.599Z,4.86
2019-04-30T15:27:45.237Z,4.97
2019-04-30T15:32:36.046Z,5.10
2019-04-30T15:37:29.762Z,5.10
2019-04-30T15:42:23.421Z,5.67
2019-04-30T15:47:19.087Z,4.08
2019-04-30T15:52:12.715Z,5.67
2019-04-30T15:57:06.428Z,4.30
2019-04-30T16:02:01.621Z,3.70
2019-04-30T16:06:56.120Z,3.37
2019-04-30T16:11:53.269Z,5.50
2019-04-30T16:16:48.546Z,3.17
2019-04-30T16:21:47.915Z,5.12
2019-04-30T16:26:49.987Z,3.90
2019-04-30T16:31:39.225Z,3.20
2019-04-30T16:36:35.808Z,6.08
2019-04-30T16:41:31.800Z,3.40
2019-04-30T16:46:25.505Z,6.60
2019-04-30T16:51:19.132Z,3.45
2019-04-30T16:56:13.621Z,5.00
2019-04-30T17:01:08.878Z,4.53
2019-04-30T17:06:06.269Z,2.80
2019-04-30T17:11:33.157Z,5.83
2019-04-30T17:16:30.109Z,7.17
2019-04-30T17:21:24.804Z,2.85
2019-04-30T17:26:28.278Z,2.57
2019-04-30T17:31:27.276Z,4.37
2019-04-30T17:36:24.812Z,3.83
2019-04-30T17:41:42.001Z,3.65
2019-04-30T17:46:44.652Z,3.40
2019-04-30T17:51:59.310Z,3.33
2019-04-30T17:56:52.803Z,2.58
2019-04-30T18:01:50.747Z,4.37
2019-04-30T18:06:51.218Z,3.58
2019-04-30T18:11:44.808Z,3.37
2019-04-30T18:16:38.785Z,5.58
2019-04-30T18:21:42.884Z,4.17
2019-04-30T18:26:38.441Z,5.25
2019-04-30T18:31:41.180Z,5.20
2019-04-30T18:36:39.636Z,5.25
2019-04-30T18:41:33.197Z,3.33
2019-04-30T18:46:26.796Z,4.28
2019-04-30T18:51:33.656Z,4.83
2019-04-30T18:56:15.848Z,3.67
2019-04-30T19:01:13.706Z,4.97
2019-04-30T19:06:22.542Z,5.97
2019-04-30T19:11:21.598Z,4.95
2019-04-30T19:16:29.675Z,2.58
2019-04-30T19:21:28.036Z,3.27
2019-04-30T19:26:22.805Z,0.70
2019-04-30T19:31:22.651Z,2.27
2019-04-30T19:36:18.978Z,2.70
2019-04-30T19:41:12.761Z,2.37
2019-04-30T19:46:12.160Z,1.95
2019-04-30T19:51:05.904Z,4.97
2019-04-30T19:56:00.612Z,2.00
2019-04-30T20:00:59.313Z,4.40
2019-04-30T20:05:58.717Z,5.33
2019-04-30T20:11:03.595Z,2.00
2019-04-30T20:16:09.643Z,3.40
2019-04-30T20:21:27.582Z,4.67
2019-04-30T20:26:14.423Z,4.65
2019-04-30T20:31:14.699Z,5.58
2019-04-30T20:36:21.888Z,3.87
2019-04-30T20:41:13.221Z,1.40
2019-04-30T20:46:16.083Z,1.75
2019-04-30T20:51:25.137Z,2.47
2019-04-30T20:56:29.156Z,4.70
2019-04-30T21:01:22.919Z,1.98
2019-04-30T21:06:17.216Z,1.00
2019-04-30T21:11:13.290Z,4.60
2019-04-30T21:16:07.003Z,2.70
2019-04-30T21:21:09.012Z,2.20
2019-04-30T21:26:03.738Z,2.08
